Eships Agamid — ZDHS9 — position and weather

sailwx.info

Track history (hours):
 
Tides and Currents Weather Stations Pressure Air Temp Water Temp Dewpoint Dewpoint Depression Visibility Wind Speed Wind Dir Waves Ship Positions

Eships Agamid

Last reported at 2015-May-26 11:33 UTC. Time now 2015-May-26 11:41 UTC.
Position N 48°08' W 005°07'.

Length 128 m; draft 6.2 m.

Type: Tanker. MMSI: 236355000.

Date/timePositionNaut miles runAvg speedWind from/ knotsBaromVisibWave heightAir tempDewpointWater temp
2015-May-26 11:33N 48°08' W 005°07'1111.5
2015-May-26 10:33N 48°15' W 004°54'1312.7
2015-May-26 09:34N 48°19' W 004°36'7 6.1
2015-May-26 08:25N 48°23' W 004°27'0 0.0
2015-May-26 07:33N 48°23' W 004°27'0 0.0
2015-May-26 06:33N 48°23' W 004°27'0 0.0
2015-May-26 05:33N 48°23' W 004°27'0 0.0
2015-May-26 04:33N 48°23' W 004°27'0 0.0
2015-May-26 03:34N 48°23' W 004°27'0 0.0
2015-May-26 02:34N 48°23' W 004°27'0 0.0
2015-May-26 01:34N 48°23' W 004°27'0 0.0
2015-May-26 00:34N 48°23' W 004°27'0 0.0
2015-May-25 23:33N 48°23' W 004°27'0 0.0
2015-May-25 22:33N 48°23' W 004°27'0 0.1
2015-May-25 21:33N 48°23' W 004°27'7 6.8
2015-May-25 20:33N 48°20' W 004°36'1312.7
2015-May-25 19:33N 48°14' W 004°53'1212.2
2015-May-25 18:33N 48°16' W 005°12'202 8.8
2015-May-24 19:33N 49°38' W 000°30'1312.9
2015-May-24 18:33N 49°33' W 000°12'1212.1
2015-May-24 17:33N 49°29' E 000°06'1 1.3
2015-May-24 16:31N 49°28' E 000°07'0 0.0
2015-May-24 15:31N 49°28' E 000°07'0 0.0
2015-May-24 14:31N 49°28' E 000°07'0 0.0
2015-May-24 13:31N 49°28' E 000°07'0 0.0
2015-May-24 12:31N 49°28' E 000°07'0 0.0
2015-May-24 11:31N 49°28' E 000°07'0 0.0
2015-May-24 10:31N 49°28' E 000°07'0 0.0
2015-May-24 09:31N 49°28' E 000°07'0 0.0
2015-May-24 08:31N 49°28' E 000°07'0 0.0
2015-May-24 07:31N 49°28' E 000°07'0 0.0
2015-May-24 06:31N 49°28' E 000°07'0 0.0
2015-May-24 05:31N 49°28' E 000°07'0 0.0
2015-May-24 04:31N 49°28' E 000°07'0 0.0
2015-May-24 03:31N 49°28' E 000°07'0 0.0
2015-May-24 02:31N 49°28' E 000°07'0 0.0
2015-May-24 01:31N 49°28' E 000°07'0 0.0
2015-May-24 00:31N 49°28' E 000°07'0 0.0
2015-May-23 23:31N 49°28' E 000°07'0 0.0
2015-May-23 22:31N 49°28' E 000°07'0 0.0
2015-May-23 21:31N 49°28' E 000°07'0 0.0
2015-May-23 20:31N 49°28' E 000°07'0 0.0
2015-May-23 19:31N 49°28' E 000°07'0 0.0
2015-May-23 18:31N 49°28' E 000°07'0 0.0
2015-May-23 17:32N 49°28' E 000°07'0 0.0
2015-May-23 16:32N 49°28' E 000°07'0 0.0
2015-May-23 15:32N 49°28' E 000°07'0 0.0
2015-May-23 14:32N 49°28' E 000°07'0 0.0
2015-May-23 13:32N 49°28' E 000°07'0 0.0
2015-May-23 12:32N 49°28' E 000°07'0 0.0
2015-May-23 11:32N 49°28' E 000°07'0 0.0
2015-May-23 10:32N 49°28' E 000°07'0 0.0
2015-May-23 09:29N 49°28' E 000°07'0 0.0
2015-May-23 08:32N 49°28' E 000°07'0 0.0
2015-May-23 07:32N 49°28' E 000°07'0 0.0
2015-May-23 06:32N 49°28' E 000°07'0 0.1
2015-May-23 05:32N 49°28' E 000°07'0 0.0
2015-May-23 04:32N 49°28' E 000°07'0 0.0
2015-May-23 03:33N 49°28' E 000°07'0 0.0
2015-May-23 02:33N 49°28' E 000°07'0 0.0
2015-May-23 01:33N 49°28' E 000°07'0 0.0
2015-May-23 00:33N 49°28' E 000°07'0 0.0
2015-May-22 23:33N 49°28' E 000°07'0 0.0
2015-May-22 22:33N 49°28' E 000°07'0 0.0
2015-May-22 21:33N 49°28' E 000°07'0 0.0
2015-May-22 20:33N 49°28' E 000°07'0 0.0
2015-May-22 19:33N 49°28' E 000°07'0 0.0
2015-May-22 18:33N 49°28' E 000°07'0 0.0
2015-May-22 17:33N 49°28' E 000°07'0 0.0
2015-May-22 16:33N 49°28' E 000°07'0 0.0
2015-May-22 15:33N 49°28' E 000°07'0 0.0
2015-May-22 14:33N 49°28' E 000°07'1 1.5
2015-May-22 13:33N 49°29' E 000°05'1010.3
2015-May-22 12:32N 49°33' W 000°09'0 0.0
2015-May-22 11:32N 49°33' W 000°09'0 0.0
2015-May-22 10:32N 49°33' W 000°09'0 0.0
2015-May-22 09:32N 49°33' W 000°09'0 0.0
2015-May-22 08:32N 49°33' W 000°09'0 0.1
2015-May-22 07:32N 49°33' W 000°09'0 0.0
2015-May-22 06:32N 49°33' W 000°09'0 0.0
2015-May-22 05:32N 49°33' W 000°09'0 0.0
2015-May-22 04:32N 49°33' W 000°09'0 0.3
2015-May-22 03:34N 49°33' W 000°10'9 9.3
2015-May-22 02:33N 49°36' W 000°24'9 9.4
2015-May-22 01:34N 49°40' W 000°36'1110.5
2015-May-22 00:34N 49°45' W 000°51'1211.5
2015-May-21 23:33N 49°51' W 001°07'193 9.6
2015-May-21 03:29N 47°53' W 005°00'13212.7
2015-May-20 17:07N 46°31' W 002°28'611.6
2015-May-20 16:33N 46°26' W 002°22'1211.6
2015-May-20 15:32N 46°17' W 002°12'1 0.0
2015-May-18 17:31N 46°16' W 002°11'1313.4
2015-May-18 16:33N 46°26' W 002°22'207 5.7
2015-May-17 04:04N 49°41' W 000°38'612.3
2015-May-17 03:33N 49°38' W 000°29'1111.2
2015-May-17 02:33N 49°32' W 000°14'1111.5
2015-May-17 01:33N 49°30' E 000°03'3 3.2
2015-May-17 00:33N 49°28' E 000°07'0 0.0
2015-May-16 23:33N 49°28' E 000°07'0 0.0
2015-May-16 22:33N 49°28' E 000°07'0 0.0
2015-May-16 21:33N 49°28' E 000°07'0 0.0
2015-May-16 20:33N 49°28' E 000°07'0 0.0
2015-May-16 19:33N 49°28' E 000°07'0 0.0
2015-May-16 18:33N 49°28' E 000°07'0 0.0
2015-May-16 17:33N 49°28' E 000°07'0 0.0
2015-May-16 16:33N 49°28' E 000°07'0 0.0
2015-May-16 15:33N 49°28' E 000°07'0 0.0
2015-May-16 14:33N 49°28' E 000°07'0 0.0
2015-May-16 13:33N 49°28' E 000°07'0 0.0
2015-May-16 12:33N 49°28' E 000°07'0 0.0
2015-May-16 11:33N 49°28' E 000°07'  
Track history (hours):
 
Tides and Currents Weather Stations Pressure Air Temp Water Temp Dewpoint Dewpoint Depression Visibility Wind Speed Wind Dir Waves Ship Positions

Eships Agamid

Last reported at 2015-May-26 11:33 UTC. Time now 2015-May-26 11:41 UTC.
Position N 48°08' W 005°07'.

Length 128 m; draft 6.2 m.

Type: Tanker. MMSI: 236355000.

Date/timePositionNaut miles runAvg speedWind from/ knotsBaromVisibWave heightAir tempDewpointWater temp
2015-May-26 11:33N 48°08' W 005°07'1111.5
2015-May-26 10:33N 48°15' W 004°54'1312.7
2015-May-26 09:34N 48°19' W 004°36'7 6.1
2015-May-26 08:25N 48°23' W 004°27'0 0.0
2015-May-26 07:33N 48°23' W 004°27'0 0.0
2015-May-26 06:33N 48°23' W 004°27'0 0.0
2015-May-26 05:33N 48°23' W 004°27'0 0.0
2015-May-26 04:33N 48°23' W 004°27'0 0.0
2015-May-26 03:34N 48°23' W 004°27'0 0.0
2015-May-26 02:34N 48°23' W 004°27'0 0.0
2015-May-26 01:34N 48°23' W 004°27'0 0.0
2015-May-26 00:34N 48°23' W 004°27'0 0.0
2015-May-25 23:33N 48°23' W 004°27'0 0.0
2015-May-25 22:33N 48°23' W 004°27'0 0.1
2015-May-25 21:33N 48°23' W 004°27'7 6.8
2015-May-25 20:33N 48°20' W 004°36'1312.7
2015-May-25 19:33N 48°14' W 004°53'1212.2
2015-May-25 18:33N 48°16' W 005°12'202 8.8
2015-May-24 19:33N 49°38' W 000°30'1312.9
2015-May-24 18:33N 49°33' W 000°12'1212.1
2015-May-24 17:33N 49°29' E 000°06'1 1.3
2015-May-24 16:31N 49°28' E 000°07'0 0.0
2015-May-24 15:31N 49°28' E 000°07'0 0.0
2015-May-24 14:31N 49°28' E 000°07'0 0.0
2015-May-24 13:31N 49°28' E 000°07'0 0.0
2015-May-24 12:31N 49°28' E 000°07'0 0.0
2015-May-24 11:31N 49°28' E 000°07'0 0.0
2015-May-24 10:31N 49°28' E 000°07'0 0.0
2015-May-24 09:31N 49°28' E 000°07'0 0.0
2015-May-24 08:31N 49°28' E 000°07'0 0.0
2015-May-24 07:31N 49°28' E 000°07'0 0.0
2015-May-24 06:31N 49°28' E 000°07'0 0.0
2015-May-24 05:31N 49°28' E 000°07'0 0.0
2015-May-24 04:31N 49°28' E 000°07'0 0.0
2015-May-24 03:31N 49°28' E 000°07'0 0.0
2015-May-24 02:31N 49°28' E 000°07'0 0.0
2015-May-24 01:31N 49°28' E 000°07'0 0.0
2015-May-24 00:31N 49°28' E 000°07'0 0.0
2015-May-23 23:31N 49°28' E 000°07'0 0.0
2015-May-23 22:31N 49°28' E 000°07'0 0.0
2015-May-23 21:31N 49°28' E 000°07'0 0.0
2015-May-23 20:31N 49°28' E 000°07'0 0.0
2015-May-23 19:31N 49°28' E 000°07'0 0.0
2015-May-23 18:31N 49°28' E 000°07'0 0.0
2015-May-23 17:32N 49°28' E 000°07'0 0.0
2015-May-23 16:32N 49°28' E 000°07'0 0.0
2015-May-23 15:32N 49°28' E 000°07'0 0.0
2015-May-23 14:32N 49°28' E 000°07'0 0.0
2015-May-23 13:32N 49°28' E 000°07'0 0.0
2015-May-23 12:32N 49°28' E 000°07'0 0.0
2015-May-23 11:32N 49°28' E 000°07'0 0.0
2015-May-23 10:32N 49°28' E 000°07'0 0.0
2015-May-23 09:29N 49°28' E 000°07'0 0.0
2015-May-23 08:32N 49°28' E 000°07'0 0.0
2015-May-23 07:32N 49°28' E 000°07'0 0.0
2015-May-23 06:32N 49°28' E 000°07'0 0.1
2015-May-23 05:32N 49°28' E 000°07'0 0.0
2015-May-23 04:32N 49°28' E 000°07'0 0.0
2015-May-23 03:33N 49°28' E 000°07'0 0.0
2015-May-23 02:33N 49°28' E 000°07'0 0.0
2015-May-23 01:33N 49°28' E 000°07'0 0.0
2015-May-23 00:33N 49°28' E 000°07'0 0.0
2015-May-22 23:33N 49°28' E 000°07'0 0.0
2015-May-22 22:33N 49°28' E 000°07'0 0.0
2015-May-22 21:33N 49°28' E 000°07'0 0.0
2015-May-22 20:33N 49°28' E 000°07'0 0.0
2015-May-22 19:33N 49°28' E 000°07'0 0.0
2015-May-22 18:33N 49°28' E 000°07'0 0.0
2015-May-22 17:33N 49°28' E 000°07'0 0.0
2015-May-22 16:33N 49°28' E 000°07'0 0.0
2015-May-22 15:33N 49°28' E 000°07'0 0.0
2015-May-22 14:33N 49°28' E 000°07'1 1.5
2015-May-22 13:33N 49°29' E 000°05'1010.3
2015-May-22 12:32N 49°33' W 000°09'0 0.0
2015-May-22 11:32N 49°33' W 000°09'0 0.0
2015-May-22 10:32N 49°33' W 000°09'0 0.0
2015-May-22 09:32N 49°33' W 000°09'0 0.0
2015-May-22 08:32N 49°33' W 000°09'0 0.1
2015-May-22 07:32N 49°33' W 000°09'0 0.0
2015-May-22 06:32N 49°33' W 000°09'0 0.0
2015-May-22 05:32N 49°33' W 000°09'0 0.0
2015-May-22 04:32N 49°33' W 000°09'0 0.3
2015-May-22 03:34N 49°33' W 000°10'9 9.3
2015-May-22 02:33N 49°36' W 000°24'9 9.4
2015-May-22 01:34N 49°40' W 000°36'1110.5
2015-May-22 00:34N 49°45' W 000°51'1211.5
2015-May-21 23:33N 49°51' W 001°07'193 9.6
2015-May-21 03:29N 47°53' W 005°00'13212.7
2015-May-20 17:07N 46°31' W 002°28'611.6
2015-May-20 16:33N 46°26' W 002°22'1211.6
2015-May-20 15:32N 46°17' W 002°12'1 0.0
2015-May-18 17:31N 46°16' W 002°11'1313.4
2015-May-18 16:33N 46°26' W 002°22'207 5.7
2015-May-17 04:04N 49°41' W 000°38'612.3
2015-May-17 03:33N 49°38' W 000°29'1111.2
2015-May-17 02:33N 49°32' W 000°14'1111.5
2015-May-17 01:33N 49°30' E 000°03'3 3.2
2015-May-17 00:33N 49°28' E 000°07'0 0.0
2015-May-16 23:33N 49°28' E 000°07'0 0.0
2015-May-16 22:33N 49°28' E 000°07'0 0.0
2015-May-16 21:33N 49°28' E 000°07'0 0.0
2015-May-16 20:33N 49°28' E 000°07'0 0.0
2015-May-16 19:33N 49°28' E 000°07'0 0.0
2015-May-16 18:33N 49°28' E 000°07'0 0.0
2015-May-16 17:33N 49°28' E 000°07'0 0.0
2015-May-16 16:33N 49°28' E 000°07'0 0.0
2015-May-16 15:33N 49°28' E 000°07'0 0.0
2015-May-16 14:33N 49°28' E 000°07'0 0.0
2015-May-16 13:33N 49°28' E 000°07'0 0.0
2015-May-16 12:33N 49°28' E 000°07'0 0.0
2015-May-16 11:33N 49°28' E 000°07'  

Dump ship's entire track history